Time;durP1;ratioP1;P1;durP2;ratioP2;P2;SDS_P1;SDS_P2;PMS_P1;PMS_P2;Temp;Humidity;BMP_temperature;BMP_pressure;BME280_temperature;BME280_humidity;BME280_pressure;Samples;Min_cycle;Max_cycle;Signal;HPM_P1;HPM_P2
2023/12/27 00:01:28;;;;;;;17.20;10.57;;;4.30;99.90;;;;;;4898178;29;20561;-74
2023/12/27 00:03:53;;;;;;;17.77;9.95;;;4.40;99.90;;;;;;4898136;29;20722;-75
2023/12/27 00:06:19;;;;;;;15.10;9.52;;;4.40;99.90;;;;;;4897983;29;20051;-75
2023/12/27 00:08:45;;;;;;;15.10;9.43;;;4.20;99.90;;;;;;4898200;29;20837;-74
2023/12/27 00:11:11;;;;;;;15.07;9.55;;;4.20;99.90;;;;;;4898209;29;20031;-75
2023/12/27 00:13:37;;;;;;;18.85;10.95;;;4.20;99.90;;;;;;4897373;29;20437;-74
2023/12/27 00:16:03;;;;;;;15.32;8.73;;;4.30;99.90;;;;;;4897309;29;20040;-75
2023/12/27 00:18:28;;;;;;;14.98;9.68;;;4.20;99.90;;;;;;4897909;29;20531;-74
2023/12/27 00:20:54;;;;;;;17.58;10.15;;;4.10;99.90;;;;;;4897429;29;20071;-74
2023/12/27 00:23:19;;;;;;;17.70;9.98;;;3.90;99.90;;;;;;4898066;29;20538;-74
2023/12/27 00:25:45;;;;;;;16.80;9.32;;;3.80;99.90;;;;;;4897103;29;20036;-75
2023/12/27 00:28:11;;;;;;;15.95;8.57;;;3.80;99.90;;;;;;4897898;29;20425;-74
2023/12/27 00:30:36;;;;;;;16.27;9.73;;;3.80;99.90;;;;;;4899202;29;20043;-75
2023/12/27 00:33:02;;;;;;;16.20;10.40;;;3.90;99.90;;;;;;4900361;29;20028;-74
2023/12/27 00:35:28;;;;;;;16.80;11.00;;;4.00;99.90;;;;;;4903941;29;20133;-74
2023/12/27 00:37:54;;;;;;;17.70;10.30;;;4.20;99.90;;;;;;4904475;29;20091;-74
2023/12/27 00:40:19;;;;;;;20.00;11.30;;;4.20;99.90;;;;;;4903829;29;20040;-74
2023/12/27 00:42:46;;;;;;;16.73;10.10;;;4.20;99.90;;;;;;4903100;29;20583;-74
2023/12/27 00:45:12;;;;;;;17.85;9.95;;;4.40;99.90;;;;;;4903642;29;20036;-74
2023/12/27 00:47:38;;;;;;;14.98;8.80;;;4.30;99.90;;;;;;4903858;29;20054;-74
2023/12/27 00:50:04;;;;;;;13.02;8.57;;;4.10;99.90;;;;;;4903513;29;20391;-74
2023/12/27 00:52:29;;;;;;;17.77;10.15;;;4.00;99.90;;;;;;4904323;29;20031;-74
2023/12/27 00:54:55;;;;;;;16.15;8.98;;;4.10;99.90;;;;;;4903963;29;20040;-74
2023/12/27 00:57:21;;;;;;;17.50;8.98;;;4.30;99.90;;;;;;4904124;29;20039;-74
2023/12/27 00:59:46;;;;;;;14.80;8.85;;;4.30;99.90;;;;;;4904650;29;20059;-74
2023/12/27 01:02:12;;;;;;;15.95;9.10;;;4.30;99.90;;;;;;4886829;29;20036;-74
2023/12/27 01:04:38;;;;;;;17.55;9.68;;;4.30;99.90;;;;;;4903212;29;20510;-74
2023/12/27 01:07:03;;;;;;;15.52;9.80;;;4.40;99.90;;;;;;4904258;29;20123;-75
2023/12/27 01:09:29;;;;;;;16.92;9.75;;;4.40;99.90;;;;;;4904188;29;20024;-74
2023/12/27 01:11:55;;;;;;;17.77;9.20;;;4.30;99.90;;;;;;4904037;29;20595;-74
2023/12/27 01:14:20;;;;;;;16.60;10.85;;;4.10;99.90;;;;;;4903266;29;20046;-74
2023/12/27 01:16:46;;;;;;;22.38;10.57;;;4.10;99.90;;;;;;4903724;29;20044;-74
2023/12/27 01:19:12;;;;;;;19.13;9.75;;;4.30;99.90;;;;;;4903555;29;20067;-74
2023/12/27 01:21:37;;;;;;;18.17;9.75;;;4.30;99.90;;;;;;4902817;29;20037;-74
2023/12/27 01:24:03;;;;;;;16.13;9.05;;;4.20;99.90;;;;;;4903270;29;20037;-74
2023/12/27 01:26:29;;;;;;;14.57;9.30;;;4.10;99.90;;;;;;4903545;29;20048;-74
2023/12/27 01:28:55;;;;;;;14.32;9.48;;;3.90;99.90;;;;;;4903599;29;20528;-74
2023/12/27 01:31:21;;;;;;;18.65;10.65;;;3.80;99.90;;;;;;4903406;29;20040;-74
2023/12/27 01:33:46;;;;;;;17.30;10.65;;;3.60;99.90;;;;;;4903392;29;20091;-74
2023/12/27 01:36:12;;;;;;;14.50;9.50;;;3.70;99.90;;;;;;4903650;29;20036;-74
2023/12/27 01:38:38;;;;;;;16.35;8.25;;;3.70;99.90;;;;;;4903375;29;20701;-74
2023/12/27 01:41:03;;;;;;;15.68;9.07;;;3.70;99.90;;;;;;4906259;29;20040;-74
2023/12/27 01:43:29;;;;;;;14.60;9.25;;;3.70;99.90;;;;;;4907625;29;20043;-74
2023/12/27 01:45:56;;;;;;;14.93;9.60;;;3.70;99.90;;;;;;4907619;29;20036;-74
2023/12/27 01:48:22;;;;;;;14.55;9.82;;;3.70;99.90;;;;;;4907265;29;20483;-74
2023/12/27 01:50:53;;;;;;;14.10;8.45;;;3.70;99.90;;;;;;4907084;29;20046;-74
2023/12/27 01:53:20;;;;;;;15.93;9.35;;;3.60;99.90;;;;;;4906867;29;20490;-74
2023/12/27 01:55:47;;;;;;;11.85;8.30;;;3.60;99.90;;;;;;4907266;29;20075;-74
2023/12/27 01:58:14;;;;;;;13.93;9.25;;;3.60;99.90;;;;;;4907575;29;20036;-74
2023/12/27 02:00:47;;;;;;;15.25;9.80;;;3.60;99.90;;;;;;4907090;29;20063;-74
2023/12/27 02:03:12;;;;;;;14.60;9.85;;;3.60;99.90;;;;;;4906649;29;20032;-74
2023/12/27 02:05:39;;;;;;;19.27;12.05;;;3.80;99.90;;;;;;4906982;29;20039;-74
2023/12/27 02:08:08;;;;;;;18.73;11.38;;;4.00;99.90;;;;;;4906840;29;20119;-74
2023/12/27 02:10:34;;;;;;;16.45;10.73;;;4.10;99.90;;;;;;4907377;29;20039;-74
2023/12/27 02:13:07;;;;;;;16.60;9.40;;;4.10;99.90;;;;;;4906203;29;20040;-74
2023/12/27 02:15:33;;;;;;;16.08;10.20;;;3.90;99.90;;;;;;4906623;29;20027;-74
2023/12/27 02:18:00;;;;;;;16.63;10.18;;;4.00;99.90;;;;;;4907180;29;20120;-74
2023/12/27 02:20:26;;;;;;;16.38;9.63;;;4.00;99.90;;;;;;4906657;29;20063;-74
2023/12/27 02:22:55;;;;;;;15.13;9.30;;;4.00;99.90;;;;;;4905947;29;20044;-74
2023/12/27 02:25:21;;;;;;;14.25;9.18;;;3.90;99.90;;;;;;4906941;29;20122;-74
2023/12/27 02:27:47;;;;;;;18.13;10.50;;;3.70;99.90;;;;;;4906784;29;20040;-74
2023/12/27 02:30:21;;;;;;;16.92;9.88;;;3.70;99.90;;;;;;4905737;29;20043;-74
2023/12/27 02:32:48;;;;;;;17.35;9.32;;;3.70;99.90;;;;;;4906379;29;20039;-74
2023/12/27 02:35:14;;;;;;;16.38;9.80;;;3.80;99.90;;;;;;4906376;29;20408;-74
2023/12/27 02:37:40;;;;;;;14.55;10.02;;;3.80;99.90;;;;;;4906150;29;20047;-74
2023/12/27 02:40:07;;;;;;;15.23;9.75;;;3.90;99.90;;;;;;4906208;29;20051;-74
2023/12/27 02:42:33;;;;;;;13.80;8.32;;;3.90;99.90;;;;;;4906310;29;20036;-74
2023/12/27 02:44:59;;;;;;;16.15;9.45;;;3.90;99.90;;;;;;4905909;29;20035;-73
2023/12/27 02:47:24;;;;;;;15.82;9.60;;;3.60;99.90;;;;;;4906957;29;20044;-74
2023/12/27 02:49:50;;;;;;;15.52;8.38;;;3.60;99.90;;;;;;4906544;29;20064;-74
2023/12/27 02:52:15;;;;;;;16.67;8.48;;;3.70;99.90;;;;;;4904855;29;20044;-74
2023/12/27 02:54:41;;;;;;;13.93;8.38;;;3.70;99.90;;;;;;4906131;29;20040;-75
2023/12/27 02:57:07;;;;;;;15.13;7.40;;;3.70;99.90;;;;;;4906399;29;20510;-74
2023/12/27 02:59:33;;;;;;;12.43;7.70;;;3.70;99.90;;;;;;4906103;29;20681;-74
2023/12/27 03:01:58;;;;;;;12.43;8.32;;;3.70;99.90;;;;;;4903639;29;20040;-74
2023/12/27 03:04:24;;;;;;;11.73;7.00;;;3.70;99.90;;;;;;4906604;29;20036;-74
2023/12/27 03:06:50;;;;;;;11.27;7.57;;;3.70;99.90;;;;;;4905969;29;20040;-74
2023/12/27 03:09:16;;;;;;;17.98;8.80;;;3.60;99.90;;;;;;4905690;29;20554;-74
2023/12/27 03:11:41;;;;;;;14.80;8.80;;;3.60;99.90;;;;;;4905588;29;20039;-74
2023/12/27 03:14:07;;;;;;;14.25;9.02;;;3.60;99.90;;;;;;4888515;29;20056;-74
2023/12/27 03:16:33;;;;;;;14.60;8.38;;;3.70;99.90;;;;;;4906023;29;20035;-74
2023/12/27 03:18:59;;;;;;;16.73;8.18;;;3.80;99.90;;;;;;4905367;29;20028;-74
2023/12/27 03:21:25;;;;;;;12.05;8.07;;;3.80;99.90;;;;;;4905830;29;20020;-74
2023/12/27 03:23:51;;;;;;;12.85;7.57;;;3.80;99.90;;;;;;4905676;29;20060;-74
2023/12/27 03:26:17;;;;;;;12.98;8.45;;;3.70;99.90;;;;;;4905879;29;20628;-74
2023/12/27 03:28:43;;;;;;;14.65;9.10;;;3.80;99.90;;;;;;4904898;29;20036;-74
2023/12/27 03:31:09;;;;;;;13.60;8.77;;;3.70;99.90;;;;;;4905194;29;20344;-74
2023/12/27 03:33:34;;;;;;;12.32;8.90;;;3.70;99.90;;;;;;4904751;29;20047;-74
2023/12/27 03:36:00;;;;;;;12.75;8.27;;;3.60;99.90;;;;;;4905517;29;20032;-74
2023/12/27 03:38:26;;;;;;;14.20;7.78;;;3.70;99.90;;;;;;4904972;29;20040;-74
2023/12/27 03:40:52;;;;;;;15.20;9.02;;;3.80;99.90;;;;;;4905892;29;20063;-74
2023/12/27 03:43:18;;;;;;;13.93;9.38;;;3.90;99.90;;;;;;4905137;29;20032;-75
2023/12/27 03:45:45;;;;;;;18.90;8.90;;;3.90;99.90;;;;;;4905472;29;20088;-74
2023/12/27 03:48:11;;;;;;;15.23;8.85;;;3.90;99.90;;;;;;4905688;29;20060;-74
2023/12/27 03:50:36;;;;;;;12.77;7.95;;;3.80;99.90;;;;;;4905567;29;20111;-75
2023/12/27 03:53:02;;;;;;;12.75;7.90;;;3.80;99.90;;;;;;4905141;29;20036;-75
2023/12/27 03:55:28;;;;;;;14.60;8.40;;;3.90;99.90;;;;;;4904877;29;20076;-74
2023/12/27 03:57:54;;;;;;;14.25;8.45;;;3.80;99.90;;;;;;4904690;29;20040;-74
2023/12/27 04:00:20;;;;;;;14.40;8.70;;;3.80;99.90;;;;;;4901356;29;20047;-74
2023/12/27 04:02:46;;;;;;;12.80;8.63;;;3.80;99.90;;;;;;4902196;29;20036;-74
2023/12/27 04:05:15;;;;;;;12.13;7.95;;;3.80;99.90;;;;;;4899141;29;20064;-74
2023/12/27 04:07:40;;;;;;;13.82;8.35;;;3.80;99.90;;;;;;4899605;29;20459;-75
2023/12/27 04:10:06;;;;;;;14.15;7.18;;;3.70;99.90;;;;;;4899441;29;20048;-75
2023/12/27 04:12:32;;;;;;;13.45;8.30;;;3.70;99.90;;;;;;4899795;29;20036;-74
2023/12/27 04:14:58;;;;;;;14.52;9.00;;;3.70;99.90;;;;;;4899649;29;20071;-75
2023/12/27 04:17:25;;;;;;;13.82;8.05;;;3.80;99.90;;;;;;4898554;29;20499;-75
2023/12/27 04:19:52;;;;;;;14.32;8.50;;;3.70;99.90;;;;;;4896898;29;20055;-75
2023/12/27 04:22:17;;;;;;;12.63;7.68;;;3.60;99.90;;;;;;4897985;29;20199;-74
2023/12/27 04:24:43;;;;;;;14.23;9.38;;;3.50;99.90;;;;;;4900256;29;20082;-74
2023/12/27 04:27:08;;;;;;;17.50;9.25;;;3.30;99.90;;;;;;4900003;29;20036;-75
2023/12/27 04:29:34;;;;;;;19.38;8.88;;;3.40;99.90;;;;;;4900330;29;20028;-74
2023/12/27 04:32:00;;;;;;;13.23;9.10;;;3.30;99.90;;;;;;4900559;29;20036;-74
2023/12/27 04:34:25;;;;;;;16.27;9.15;;;3.20;99.90;;;;;;4900273;29;20095;-74
2023/12/27 04:36:51;;;;;;;13.13;8.13;;;3.40;99.90;;;;;;4897874;29;20586;-75
2023/12/27 04:39:17;;;;;;;18.10;9.25;;;3.50;99.90;;;;;;4897524;29;20635;-74
2023/12/27 04:41:42;;;;;;;15.07;9.55;;;3.60;99.90;;;;;;4900221;29;20533;-74
2023/12/27 04:44:08;;;;;;;15.10;9.60;;;3.60;99.90;;;;;;4900525;29;20036;-74
2023/12/27 04:46:37;;;;;;;12.60;8.80;;;3.60;99.90;;;;;;4900412;29;20099;-75
2023/12/27 04:49:08;;;;;;;13.60;9.07;;;3.60;99.90;;;;;;4899850;29;20545;-74
2023/12/27 04:51:34;;;;;;;17.33;9.25;;;3.50;99.90;;;;;;4901374;29;20083;-75
2023/12/27 04:54:01;;;;;;;16.30;9.02;;;3.60;99.90;;;;;;4899858;29;20036;-75
2023/12/27 04:56:28;;;;;;;15.60;8.27;;;3.40;99.90;;;;;;4900173;29;20032;-75
2023/12/27 04:58:54;;;;;;;13.23;8.45;;;3.40;99.90;;;;;;4897998;29;20970;-75
2023/12/27 05:01:20;;;;;;;14.77;8.45;;;3.40;99.90;;;;;;4896806;29;20142;-75
2023/12/27 05:03:46;;;;;;;13.88;7.75;;;3.20;99.90;;;;;;4897541;29;21385;-75
2023/12/27 05:06:13;;;;;;;13.02;7.65;;;3.20;99.90;;;;;;4897131;29;20546;-74
2023/12/27 05:08:42;;;;;;;12.80;7.10;;;3.30;99.90;;;;;;4896041;29;20599;-74
2023/12/27 05:11:18;;;;;;;14.90;8.23;;;3.40;99.90;;;;;;4897251;29;20510;-75
2023/12/27 05:13:44;;;;;;;11.43;7.57;;;3.30;99.90;;;;;;4897278;29;20068;-75
2023/12/27 05:16:15;;;;;;;14.82;8.20;;;3.30;99.90;;;;;;4896849;29;20458;-74
2023/12/27 05:18:41;;;;;;;13.40;7.85;;;3.20;99.90;;;;;;4896339;29;20043;-75
2023/12/27 05:21:08;;;;;;;10.77;7.30;;;3.10;99.90;;;;;;4896664;29;20099;-75
2023/12/27 05:23:34;;;;;;;14.13;8.02;;;3.10;99.90;;;;;;4897194;29;20483;-75
2023/12/27 05:26:00;;;;;;;14.15;7.70;;;3.00;99.90;;;;;;4896890;29;20116;-74
2023/12/27 05:28:26;;;;;;;13.77;7.50;;;2.90;99.90;;;;;;4896595;29;20036;-75
2023/12/27 05:30:52;;;;;;;15.05;8.43;;;3.00;99.90;;;;;;4897443;29;20419;-74
2023/12/27 05:33:18;;;;;;;13.23;7.82;;;3.30;99.90;;;;;;4897438;29;20745;-74
2023/12/27 05:35:43;;;;;;;13.90;7.57;;;3.50;99.90;;;;;;4897217;29;20032;-75
2023/12/27 05:38:09;;;;;;;11.23;7.15;;;3.50;99.90;;;;;;4896137;29;20044;-74
2023/12/27 05:40:35;;;;;;;12.88;7.97;;;3.40;99.90;;;;;;4895255;29;20040;-75
2023/12/27 05:43:00;;;;;;;13.85;8.30;;;3.30;99.90;;;;;;4896214;29;20036;-75
2023/12/27 05:45:26;;;;;;;15.77;9.15;;;3.10;99.90;;;;;;4897167;29;20036;-74
2023/12/27 05:47:52;;;;;;;13.95;9.02;;;3.00;99.90;;;;;;4897312;29;21496;-75
2023/12/27 05:50:17;;;;;;;13.90;8.73;;;2.90;99.90;;;;;;4895413;29;20036;-74
2023/12/27 05:52:44;;;;;;;14.57;8.25;;;2.70;99.90;;;;;;4896045;29;20044;-75
2023/12/27 05:55:09;;;;;;;11.75;7.35;;;2.70;99.90;;;;;;4896170;29;20040;-74
2023/12/27 05:57:35;;;;;;;12.35;7.60;;;2.70;99.90;;;;;;4896643;29;20043;-74
2023/12/27 06:00:01;;;;;;;13.73;8.30;;;2.80;99.90;;;;;;4895525;29;20736;-75
2023/12/27 06:02:27;;;;;;;12.48;7.50;;;3.00;99.90;;;;;;4896158;29;20032;-74
2023/12/27 06:04:55;;;;;;;14.57;8.48;;;2.90;99.90;;;;;;4897059;29;20438;-75
2023/12/27 06:07:21;;;;;;;12.70;8.27;;;3.00;99.90;;;;;;4895825;29;20538;-75
2023/12/27 06:09:47;;;;;;;15.18;8.27;;;3.00;99.90;;;;;;4896583;29;20032;-75
2023/12/27 06:12:12;;;;;;;11.98;7.80;;;3.10;99.90;;;;;;4896489;29;20047;-74
2023/12/27 06:14:38;;;;;;;10.95;6.72;;;2.90;99.90;;;;;;4896865;29;20036;-74
2023/12/27 06:17:04;;;;;;;11.30;6.50;;;2.80;99.90;;;;;;4896138;29;20063;-74
2023/12/27 06:19:31;;;;;;;12.07;6.85;;;2.70;99.90;;;;;;4896647;29;20048;-74
2023/12/27 06:21:57;;;;;;;11.32;7.30;;;2.90;99.90;;;;;;4896980;29;20043;-74
2023/12/27 06:24:23;;;;;;;15.48;7.88;;;3.00;99.90;;;;;;4896532;29;20024;-74
2023/12/27 06:26:49;;;;;;;15.60;7.70;;;3.00;99.90;;;;;;4895980;29;20040;-74
2023/12/27 06:29:15;;;;;;;14.32;8.02;;;3.00;99.90;;;;;;4899364;29;20036;-75
2023/12/27 06:31:41;;;;;;;14.68;7.88;;;3.00;99.90;;;;;;4899541;29;20059;-74
2023/12/27 06:34:07;;;;;;;10.93;7.30;;;2.90;99.90;;;;;;4899502;29;20040;-74
2023/12/27 06:36:32;;;;;;;14.63;7.47;;;2.90;99.90;;;;;;4899272;29;20040;-75
2023/12/27 06:38:58;;;;;;;12.80;7.38;;;2.90;99.90;;;;;;4899650;29;20096;-73
2023/12/27 06:41:24;;;;;;;13.27;6.95;;;2.90;99.90;;;;;;4899650;29;20050;-75
2023/12/27 06:43:50;;;;;;;12.68;7.53;;;3.00;99.90;;;;;;4898511;29;20036;-75
2023/12/27 06:46:16;;;;;;;12.80;7.50;;;2.90;99.90;;;;;;4899411;29;20929;-74
2023/12/27 06:48:42;;;;;;;13.85;7.68;;;3.00;99.90;;;;;;4899306;29;20130;-74
2023/12/27 06:51:07;;;;;;;14.10;8.43;;;3.10;99.90;;;;;;4898847;29;20055;-74
2023/12/27 06:53:34;;;;;;;11.98;8.35;;;3.10;99.90;;;;;;4899377;29;20044;-75
2023/12/27 06:56:02;;;;;;;11.10;7.78;;;3.20;99.90;;;;;;4899470;29;20080;-75
2023/12/27 06:58:28;;;;;;;15.57;8.27;;;3.30;99.90;;;;;;4898751;29;20913;-74
2023/12/27 07:00:54;;;;;;;12.25;7.15;;;3.30;99.90;;;;;;4898197;29;20044;-75
2023/12/27 07:03:20;;;;;;;12.32;8.30;;;3.30;99.90;;;;;;4898552;29;20051;-75
2023/12/27 07:05:45;;;;;;;14.48;8.10;;;3.00;99.90;;;;;;4898898;29;20040;-74
2023/12/27 07:08:11;;;;;;;10.60;7.40;;;3.00;99.90;;;;;;4898953;29;20072;-75
2023/12/27 07:10:37;;;;;;;13.48;7.18;;;3.00;99.90;;;;;;4896431;29;20043;-74
2023/12/27 07:13:03;;;;;;;13.60;8.30;;;3.00;99.90;;;;;;4900082;29;20521;-75
2023/12/27 07:15:29;;;;;;;12.27;7.57;;;3.10;99.90;;;;;;4899551;29;20071;-75
2023/12/27 07:17:55;;;;;;;12.90;8.15;;;3.20;99.90;;;;;;4899307;29;20127;-75
2023/12/27 07:20:21;;;;;;;12.27;7.82;;;3.00;99.90;;;;;;4898416;29;20059;-74
2023/12/27 07:22:48;;;;;;;12.05;7.15;;;3.00;99.90;;;;;;4898414;29;20055;-74
2023/12/27 07:25:14;;;;;;;11.52;7.70;;;3.00;99.90;;;;;;4898649;29;20032;-74
2023/12/27 07:27:40;;;;;;;10.88;5.85;;;2.90;99.90;;;;;;4898577;29;20044;-74
2023/12/27 07:30:06;;;;;;;11.60;7.35;;;2.90;99.90;;;;;;4898509;29;20399;-74
2023/12/27 07:32:32;;;;;;;11.10;8.10;;;2.70;99.90;;;;;;4898214;29;20616;-75
2023/12/27 07:34:59;;;;;;;13.05;7.68;;;2.80;99.90;;;;;;4898521;29;20056;-74
2023/12/27 07:37:25;;;;;;;13.23;7.40;;;2.90;99.90;;;;;;4898394;29;20047;-75
2023/12/27 07:39:50;;;;;;;11.48;6.95;;;2.80;99.90;;;;;;4898563;29;20372;-75
2023/12/27 07:42:16;;;;;;;15.20;7.15;;;2.80;99.90;;;;;;4898760;29;20035;-74
2023/12/27 07:44:42;;;;;;;13.88;7.63;;;3.00;99.90;;;;;;4898407;29;20356;-74
2023/12/27 07:47:08;;;;;;;11.57;7.15;;;2.90;99.90;;;;;;4897233;29;20055;-75
2023/12/27 07:49:33;;;;;;;13.00;7.95;;;2.80;99.90;;;;;;4898139;29;20036;-74
2023/12/27 07:51:59;;;;;;;10.88;6.18;;;2.80;99.90;;;;;;4898939;29;20383;-74
2023/12/27 07:54:25;;;;;;;12.70;7.30;;;2.80;99.90;;;;;;4899085;29;20060;-75
2023/12/27 07:56:51;;;;;;;10.48;6.47;;;2.90;99.90;;;;;;4901752;29;20028;-74
2023/12/27 07:59:17;;;;;;;11.38;6.78;;;2.90;99.90;;;;;;4883532;29;20036;-75
2023/12/27 08:01:43;;;;;;;12.82;6.30;;;2.90;99.90;;;;;;4898863;29;20028;-75
2023/12/27 08:04:11;;;;;;;13.00;7.45;;;3.00;99.90;;;;;;4897980;29;21715;-74
2023/12/27 08:06:37;;;;;;;11.43;6.88;;;3.00;99.90;;;;;;4898702;29;20508;-75
2023/12/27 08:09:03;;;;;;;11.25;8.05;;;2.90;99.90;;;;;;4898551;29;20577;-74
2023/12/27 08:11:29;;;;;;;12.35;7.90;;;2.90;99.90;;;;;;4897967;29;20167;-74
2023/12/27 08:13:54;;;;;;;15.23;7.57;;;2.80;99.90;;;;;;4898335;29;20027;-75
2023/12/27 08:16:20;;;;;;;10.65;7.13;;;2.80;99.90;;;;;;4897700;29;20034;-74
2023/12/27 08:18:46;;;;;;;12.00;7.30;;;2.90;99.90;;;;;;4880405;29;20044;-75
2023/12/27 08:21:12;;;;;;;13.30;7.30;;;2.80;99.90;;;;;;4897421;29;20095;-74
2023/12/27 08:23:37;;;;;;;10.40;7.50;;;2.90;99.90;;;;;;4897303;29;20038;-74
2023/12/27 08:26:06;;;;;;;17.73;10.35;;;2.90;99.90;;;;;;4897340;29;20114;-75
2023/12/27 08:28:35;;;;;;;18.75;10.18;;;3.00;99.90;;;;;;4897930;29;20032;-75
2023/12/27 08:31:04;;;;;;;15.43;9.25;;;2.90;99.90;;;;;;4897493;29;20045;-74
2023/12/27 08:33:31;;;;;;;12.40;7.43;;;2.90;99.90;;;;;;4897675;29;20044;-74
2023/12/27 08:35:59;;;;;;;15.45;8.75;;;2.90;99.90;;;;;;4898151;29;20043;-74
2023/12/27 08:38:25;;;;;;;13.10;7.30;;;2.80;99.90;;;;;;4898034;29;20035;-74
2023/12/27 08:40:51;;;;;;;14.20;7.75;;;2.90;99.90;;;;;;4897274;29;20064;-75
2023/12/27 08:43:21;;;;;;;11.43;6.38;;;2.80;99.90;;;;;;4897733;29;20484;-75
2023/12/27 08:45:47;;;;;;;11.43;6.97;;;2.90;99.90;;;;;;4898520;29;20034;-74
2023/12/27 08:48:13;;;;;;;11.20;6.97;;;2.80;99.90;;;;;;4897626;29;20044;-74
2023/12/27 08:50:40;;;;;;;12.38;7.43;;;2.70;99.90;;;;;;4897725;29;20164;-74
2023/12/27 08:53:06;;;;;;;12.60;7.85;;;2.60;99.90;;;;;;4898159;29;20032;-75
2023/12/27 08:55:32;;;;;;;15.18;7.95;;;2.70;99.90;;;;;;4898056;29;20028;-74
2023/12/27 08:57:58;;;;;;;13.45;7.93;;;2.90;99.90;;;;;;4897078;29;20099;-74
2023/12/27 09:00:23;;;;;;;13.02;7.47;;;3.00;99.90;;;;;;4897597;29;20042;-75
2023/12/27 09:02:49;;;;;;;12.68;6.82;;;3.10;99.90;;;;;;4897277;29;20032;-75
2023/12/27 09:05:15;;;;;;;11.50;7.28;;;3.10;99.90;;;;;;4897960;29;20063;-75
2023/12/27 09:07:40;;;;;;;11.63;6.65;;;3.10;99.90;;;;;;4897369;29;20059;-74
2023/12/27 09:10:06;;;;;;;12.65;7.25;;;3.00;99.90;;;;;;4896341;29;20064;-74
2023/12/27 09:12:32;;;;;;;11.45;7.07;;;3.00;99.90;;;;;;4898287;29;20392;-75
2023/12/27 09:14:58;;;;;;;12.75;7.57;;;3.20;99.90;;;;;;4899941;29;20039;-74
2023/12/27 09:17:23;;;;;;;11.27;7.25;;;3.30;99.90;;;;;;4900074;29;20042;-74
2023/12/27 09:19:49;;;;;;;11.90;6.82;;;3.20;99.90;;;;;;4899804;29;20063;-74
2023/12/27 09:22:15;;;;;;;10.77;7.80;;;3.30;99.90;;;;;;4900633;29;20032;-75
2023/12/27 09:24:44;;;;;;;13.00;8.15;;;3.30;99.90;;;;;;4899605;29;20062;-74
2023/12/27 09:27:13;;;;;;;14.00;8.30;;;3.30;99.90;;;;;;4899851;29;20031;-75
2023/12/27 09:29:39;;;;;;;12.30;7.93;;;3.20;99.90;;;;;;4900594;29;20113;-75
2023/12/27 09:32:05;;;;;;;13.35;8.00;;;3.20;99.90;;;;;;4899663;29;20036;-74
2023/12/27 09:34:31;;;;;;;12.02;8.23;;;3.20;99.90;;;;;;4898693;29;20384;-74
2023/12/27 09:36:56;;;;;;;13.30;7.90;;;3.20;99.90;;;;;;4900150;29;20627;-74
2023/12/27 09:39:22;;;;;;;16.63;8.75;;;3.00;99.90;;;;;;4899376;29;20659;-75
2023/12/27 09:41:48;;;;;;;11.50;8.02;;;3.00;99.90;;;;;;4899757;29;20053;-75
2023/12/27 09:44:18;;;;;;;10.90;6.82;;;3.20;99.90;;;;;;4899234;29;20040;-74
2023/12/27 09:46:44;;;;;;;10.65;7.43;;;3.20;99.90;;;;;;4899664;29;20028;-75
2023/12/27 09:49:12;;;;;;;12.07;7.60;;;3.30;99.90;;;;;;4900171;29;20060;-74
2023/12/27 09:51:39;;;;;;;13.73;8.32;;;3.30;99.90;;;;;;4899576;29;20495;-74
2023/12/27 09:54:05;;;;;;;13.63;7.90;;;3.30;99.90;;;;;;4899765;29;20390;-75
2023/12/27 09:56:32;;;;;;;12.98;8.15;;;3.30;99.90;;;;;;4899392;29;20035;-74
2023/12/27 09:59:04;;;;;;;11.65;7.18;;;3.30;99.90;;;;;;4900118;29;20028;-75
2023/12/27 10:01:32;;;;;;;11.57;7.07;;;3.50;99.90;;;;;;4898615;29;20036;-74
2023/12/27 10:04:25;;;;;;;13.68;7.97;;;3.60;99.90;;;;;;4899728;29;20119;-75
2023/12/27 10:06:52;;;;;;;12.23;7.43;;;3.50;99.90;;;;;;4901452;29;20067;-74
2023/12/27 10:09:19;;;;;;;10.75;7.80;;;3.50;99.90;;;;;;4903348;29;20043;-74
2023/12/27 10:11:44;;;;;;;12.85;8.15;;;3.70;99.90;;;;;;4902646;29;20043;-74
2023/12/27 10:14:12;;;;;;;15.00;7.55;;;3.80;99.90;;;;;;4903359;29;20067;-74
2023/12/27 10:16:38;;;;;;;10.57;6.60;;;3.90;99.90;;;;;;4903483;29;20044;-75
2023/12/27 10:19:05;;;;;;;12.40;7.43;;;4.00;99.90;;;;;;4903262;29;20056;-74
2023/12/27 10:21:44;;;;;;;11.90;8.00;;;3.90;99.90;;;;;;4901933;29;20032;-75
2023/12/27 10:24:10;;;;;;;11.13;7.68;;;3.90;99.90;;;;;;4903010;29;20039;-75
2023/12/27 10:26:36;;;;;;;12.77;7.43;;;3.90;99.90;;;;;;4902251;29;20032;-75
2023/12/27 10:29:03;;;;;;;13.70;8.13;;;3.80;99.90;;;;;;4900534;29;20039;-75
2023/12/27 10:31:28;;;;;;;12.45;7.53;;;3.80;99.90;;;;;;4900486;29;20040;-74
2023/12/27 10:33:55;;;;;;;10.13;6.35;;;3.90;99.90;;;;;;4902907;29;20047;-75
2023/12/27 10:36:21;;;;;;;13.90;8.27;;;3.90;99.90;;;;;;4903314;29;20636;-74
2023/12/27 10:38:46;;;;;;;13.88;7.28;;;3.90;99.90;;;;;;4903035;29;20028;-74
2023/12/27 10:41:12;;;;;;;13.38;7.43;;;4.00;99.90;;;;;;4899739;29;20087;-74
2023/12/27 10:43:38;;;;;;;11.85;7.78;;;4.00;99.90;;;;;;4900130;29;20036;-75
2023/12/27 10:46:08;;;;;;;10.68;7.05;;;4.10;99.90;;;;;;4899953;29;20032;-74
2023/12/27 10:48:37;;;;;;;11.80;7.53;;;4.00;99.90;;;;;;4900514;29;20067;-74
2023/12/27 10:51:03;;;;;;;11.85;7.22;;;4.10;99.90;;;;;;4903058;29;20035;-75
2023/12/27 10:53:32;;;;;;;14.73;6.93;;;4.20;99.90;;;;;;4903022;29;20040;-74
2023/12/27 10:55:59;;;;;;;13.77;7.70;;;4.30;99.90;;;;;;4902321;29;20043;-74
2023/12/27 10:58:28;;;;;;;12.63;7.57;;;4.40;99.90;;;;;;4903193;29;20028;-74
2023/12/27 11:00:55;;;;;;;13.73;7.22;;;4.50;99.90;;;;;;4902184;29;20130;-75
2023/12/27 11:03:22;;;;;;;12.65;7.85;;;4.70;99.90;;;;;;4903030;29;20055;-75
2023/12/27 11:05:50;;;;;;;9.35;6.35;;;4.90;99.90;;;;;;4902344;29;20394;-74
2023/12/27 11:08:17;;;;;;;11.20;6.45;;;4.90;99.90;;;;;;4902615;29;20044;-74
2023/12/27 11:10:44;;;;;;;11.63;7.80;;;5.00;99.90;;;;;;4903184;29;20066;-74
2023/12/27 11:13:14;;;;;;;11.10;7.13;;;5.10;99.90;;;;;;4900861;29;20040;-74
2023/12/27 11:15:44;;;;;;;12.38;7.80;;;5.10;99.90;;;;;;4901568;29;20044;-74
2023/12/27 11:18:11;;;;;;;14.48;8.63;;;5.20;99.90;;;;;;4902584;29;20043;-74
2023/12/27 11:20:40;;;;;;;13.50;7.72;;;5.30;99.90;;;;;;4899663;29;20574;-74
2023/12/27 11:23:06;;;;;;;12.18;7.63;;;5.40;99.90;;;;;;4900639;29;20040;-75
2023/12/27 11:25:32;;;;;;;12.80;8.15;;;5.50;99.90;;;;;;4898278;29;20099;-76
2023/12/27 11:28:02;;;;;;;13.95;8.27;;;5.50;99.90;;;;;;4899752;29;20155;-75
2023/12/27 11:30:28;;;;;;;13.75;7.60;;;5.60;99.90;;;;;;4900526;29;20031;-75
2023/12/27 11:32:54;;;;;;;13.32;7.85;;;5.70;99.90;;;;;;4900799;29;20043;-74
2023/12/27 11:35:32;;;;;;;15.23;8.45;;;5.90;99.90;;;;;;4900544;29;20036;-75
2023/12/27 11:38:22;;;;;;;11.82;7.80;;;6.00;99.90;;;;;;4900478;29;20044;-74
2023/12/27 11:40:51;;;;;;;11.88;8.07;;;6.00;99.90;;;;;;4902255;29;20567;-75
2023/12/27 11:43:26;;;;;;;16.67;8.68;;;6.10;99.90;;;;;;4901987;29;20032;-75
2023/12/27 11:46:02;;;;;;;;;;;6.10;99.90;;;;;;4903051;29;20401;-75
2023/12/27 11:48:32;;;;;;;15.60;10.48;;;6.20;99.90;;;;;;4901649;29;20632;-75
2023/12/27 11:51:00;;;;;;;17.10;10.40;;;6.20;99.90;;;;;;4902111;29;20672;-75
2023/12/27 11:53:30;;;;;;;15.63;9.60;;;6.30;99.90;;;;;;4902607;29;20080;-74
2023/12/27 11:55:59;;;;;;;15.32;9.40;;;6.30;99.90;;;;;;4902911;29;20158;-74
2023/12/27 11:58:33;;;;;;;14.88;8.95;;;6.30;99.90;;;;;;4901979;29;20040;-74
2023/12/27 12:01:24;;;;;;;15.00;8.73;;;6.40;99.90;;;;;;4902226;29;20044;-75
2023/12/27 12:04:31;;;;;;;14.27;9.18;;;6.60;99.90;;;;;;4902288;29;20032;-75
2023/12/27 12:07:50;;;;;;;15.13;9.40;;;6.90;99.90;;;;;;4901579;29;20040;-75
2023/12/27 12:10:23;;;;;;;18.42;11.73;;;6.90;99.90;;;;;;4824392;29;20109;-74
2023/12/27 12:12:51;;;;;;;15.65;10.82;;;7.00;99.90;;;;;;4823886;29;20195;-74
2023/12/27 12:15:21;;;;;;;17.52;11.63;;;7.00;99.90;;;;;;4872189;29;20048;-75
2023/12/27 12:17:48;;;;;;;20.60;13.20;;;7.20;99.90;;;;;;4901279;29;20873;-74
2023/12/27 12:20:13;;;;;;;18.00;11.95;;;7.10;99.90;;;;;;4883774;29;20059;-74
2023/12/27 12:22:39;;;;;;;20.02;12.48;;;7.10;99.90;;;;;;4901842;29;20024;-74
2023/12/27 12:25:07;;;;;;;24.00;12.55;;;7.10;99.90;;;;;;4900527;29;20069;-75
2023/12/27 12:27:33;;;;;;;18.88;11.13;;;7.10;99.90;;;;;;4901995;29;20568;-74
2023/12/27 12:29:59;;;;;;;17.92;10.45;;;7.20;99.90;;;;;;4900901;29;20510;-75
2023/12/27 12:32:25;;;;;;;18.60;10.35;;;7.10;99.90;;;;;;4900855;29;20035;-74
2023/12/27 12:34:51;;;;;;;18.80;10.85;;;7.20;99.90;;;;;;4900166;29;20032;-74
2023/12/27 12:37:19;;;;;;;18.20;10.40;;;7.20;99.90;;;;;;4899481;29;20047;-75
2023/12/27 12:39:48;;;;;;;18.80;11.77;;;7.30;99.90;;;;;;4901068;29;20039;-75
2023/12/27 12:42:14;;;;;;;17.33;10.77;;;7.30;99.90;;;;;;4901375;29;20392;-75
2023/12/27 12:44:41;;;;;;;18.23;11.90;;;7.30;99.90;;;;;;4901142;29;20032;-75